KAJG

Mount Carmel Municipal Airport

Mount Carmel, Illinois, USA
METAR KAJG 210415Z AUTO 19009KT 10SM BKN013 BKN026 OVC034 06/03 A3005 RMK AO2 T00630031
Observed Flight Rules
Jan-21 @ 04:15 UTC (34 minutes ago) Marginal Visual Flight Rules
Wind Visibility Clouds
190° at 9 knots 10 miles
  • Broken at 1,300' AGL
  • Broken at 2,600' AGL
  • Overcast at 3,400' AGL
Temperatures Readings
Current 6°C / 43°F
Dewpoint 3°C / 37°F
Humidity 81%
Altimeter 30.05" Hg
Pressure 1018 hPa
Elevation 131
METAR KAJG 210415Z AUTO 19009KT 10SM BKN013 BKN026 OVC034 06/03 A3005 RMK AO2 T00630031
Observed Flight Rules
Jan-21 @ 04:15 UTC
(34 minutes ago)
MVFR
Wind Visibility
190° at 9 knots 10 miles
Clouds
  • Broken at 1,300' AGL
  • Broken at 2,600' AGL
  • Overcast at 3,400' AGL
Temperature Dewpoint
6°C / 43°F 3°C / 37°F
Humidity Altimeter Pressure
81% 30.05" Hg 1018 hPa